createdAt,value
2022-08-23T00:02:23.491Z,18.81
2022-08-23T00:05:07.661Z,18.91
2022-08-23T00:07:44.124Z,18.93
2022-08-23T00:10:20.064Z,19.07
2022-08-23T00:12:55.143Z,18.92
2022-08-23T00:15:27.384Z,18.90
2022-08-23T00:18:00.717Z,18.98
2022-08-23T00:20:33.374Z,19.04
2022-08-23T00:23:06.314Z,18.95
2022-08-23T00:25:38.794Z,18.77
2022-08-23T00:28:15.030Z,18.57
2022-08-23T00:30:47.077Z,18.65
2022-08-23T00:33:19.796Z,18.40
2022-08-23T00:35:51.876Z,18.63
2022-08-23T00:38:34.345Z,18.30
2022-08-23T00:41:10.553Z,18.37
2022-08-23T00:43:58.016Z,18.62
2022-08-23T00:47:00.464Z,18.58
2022-08-23T00:49:35.214Z,18.71
2022-08-23T00:52:11.983Z,18.68
2022-08-23T00:54:46.375Z,18.63
2022-08-23T00:57:20.858Z,18.53
2022-08-23T00:59:56.114Z,18.73
2022-08-23T01:02:28.105Z,18.71
2022-08-23T01:05:04.155Z,18.68
2022-08-23T01:07:47.145Z,18.37
2022-08-23T01:10:27.848Z,18.51
2022-08-23T01:13:04.885Z,18.46
2022-08-23T01:15:45.224Z,18.72
2022-08-23T01:18:20.225Z,18.59
2022-08-23T01:20:59.813Z,18.50
2022-08-23T01:23:44.116Z,18.44
2022-08-23T01:26:21.971Z,18.36
2022-08-23T01:28:58.195Z,18.51
2022-08-23T01:31:30.661Z,18.58
2022-08-23T01:34:05.436Z,18.49
2022-08-23T01:36:38.223Z,18.46
2022-08-23T01:42:12.795Z,18.51
2022-08-23T01:44:44.465Z,18.63
2022-08-23T01:47:16.645Z,18.62
2022-08-23T01:49:48.715Z,18.69
2022-08-23T01:52:21.711Z,18.64
2022-08-23T01:54:57.835Z,18.62
2022-08-23T01:57:30.055Z,18.64
2022-08-23T02:00:02.334Z,18.70
2022-08-23T02:02:35.454Z,18.46
2022-08-23T02:05:08.593Z,18.37
2022-08-23T02:07:40.793Z,18.39
2022-08-23T02:10:15.815Z,18.37
2022-08-23T02:12:48.415Z,18.19
2022-08-23T02:15:40.355Z,18.40
2022-08-23T02:18:27.123Z,18.35
2022-08-23T02:20:59.337Z,18.71
2022-08-23T02:23:31.625Z,18.71
2022-08-23T02:26:07.224Z,18.57
2022-08-23T02:28:39.825Z,18.50
2022-08-23T02:31:12.133Z,18.66
2022-08-23T02:33:44.075Z,18.44
2022-08-23T02:36:23.393Z,18.64
2022-08-23T02:38:56.723Z,18.80
2022-08-23T02:41:31.955Z,18.93
2022-08-23T02:44:04.296Z,18.36
2022-08-23T02:46:37.127Z,18.63
2022-08-23T02:49:09.974Z,18.70
2022-08-23T02:51:42.955Z,18.53
2022-08-23T02:54:15.537Z,18.39
2022-08-23T02:56:50.904Z,18.33
2022-08-23T02:59:23.304Z,18.39
2022-08-23T03:01:55.947Z,18.46
2022-08-23T03:04:28.616Z,18.56
2022-08-23T03:07:00.998Z,18.56
2022-08-23T03:09:33.147Z,18.30
2022-08-23T03:12:08.634Z,18.60
2022-08-23T03:14:41.374Z,18.61
2022-08-23T03:17:13.707Z,18.48
2022-08-23T03:19:45.924Z,18.41
2022-08-23T03:22:19.256Z,18.66
2022-08-23T03:24:52.227Z,18.51
2022-08-23T03:27:27.357Z,18.50
2022-08-23T03:29:59.414Z,18.39
2022-08-23T03:32:32.135Z,18.36
2022-08-23T03:35:04.356Z,18.44
2022-08-23T03:37:43.836Z,18.50
2022-08-23T03:40:16.479Z,18.60
2022-08-23T03:42:52.064Z,18.19
2022-08-23T03:45:24.338Z,18.41
2022-08-23T03:47:57.165Z,18.42
2022-08-23T03:50:47.045Z,18.42
2022-08-23T03:53:27.419Z,18.49
2022-08-23T03:55:59.545Z,18.41
2022-08-23T03:58:34.576Z,18.22
2022-08-23T04:01:07.965Z,18.38
2022-08-23T04:03:40.456Z,18.40
2022-08-23T04:06:12.836Z,18.34
2022-08-23T04:08:45.166Z,18.19
2022-08-23T04:11:16.917Z,18.45
2022-08-23T04:13:51.674Z,18.12
2022-08-23T04:16:23.787Z,18.37
2022-08-23T04:18:56.027Z,18.19
2022-08-23T04:21:28.455Z,17.99
2022-08-23T04:24:00.728Z,18.15
2022-08-23T04:26:34.195Z,18.38
2022-08-23T04:29:09.096Z,18.23
2022-08-23T04:31:42.466Z,18.28
2022-08-23T04:34:16.666Z,18.03
2022-08-23T04:36:55.176Z,18.20
2022-08-23T04:39:27.493Z,18.17
2022-08-23T04:42:14.783Z,18.24
2022-08-23T04:44:50.075Z,18.11
2022-08-23T04:47:22.337Z,18.31
2022-08-23T04:49:54.451Z,18.22
2022-08-23T04:52:26.575Z,18.24
2022-08-23T04:54:58.695Z,18.32
2022-08-23T04:57:30.757Z,18.23
2022-08-23T05:00:05.776Z,18.31
2022-08-23T05:02:37.737Z,18.21
2022-08-23T05:05:11.472Z,18.50
2022-08-23T05:07:43.669Z,18.46
2022-08-23T05:10:18.006Z,18.32
2022-08-23T05:12:50.677Z,18.45
2022-08-23T05:15:26.235Z,18.67
2022-08-23T05:17:58.376Z,18.56
2022-08-23T05:20:31.857Z,18.46
2022-08-23T05:23:04.336Z,18.34
2022-08-23T05:25:48.605Z,18.67
2022-08-23T05:28:22.826Z,18.33
2022-08-23T05:31:03.885Z,18.36
2022-08-23T05:33:37.745Z,18.65
2022-08-23T05:36:11.988Z,18.63
2022-08-23T05:38:46.245Z,18.34
2022-08-23T05:41:21.544Z,18.60
2022-08-23T05:43:57.926Z,18.76
2022-08-23T05:46:35.046Z,18.72
2022-08-23T05:49:07.368Z,18.81
2022-08-23T05:51:39.847Z,18.63
2022-08-23T05:54:12.987Z,18.84
2022-08-23T05:56:47.445Z,19.13
2022-08-23T05:59:20.730Z,18.97
2022-08-23T06:01:56.825Z,19.01
2022-08-23T06:04:28.828Z,19.17
2022-08-23T06:07:01.255Z,19.21
2022-08-23T06:09:33.767Z,19.27
2022-08-23T06:12:07.166Z,19.50
2022-08-23T06:14:39.148Z,19.74
2022-08-23T06:17:13.785Z,20.06
2022-08-23T06:19:46.106Z,20.16
2022-08-23T06:22:19.126Z,20.29
2022-08-23T06:24:51.225Z,19.83
2022-08-23T06:27:23.685Z,20.29
2022-08-23T06:29:55.865Z,20.23
2022-08-23T06:32:31.060Z,19.96
2022-08-23T06:35:15.873Z,20.17
2022-08-23T06:37:55.352Z,20.23
2022-08-23T06:40:29.425Z,19.90
2022-08-23T06:43:02.146Z,20.04
2022-08-23T06:45:35.374Z,19.98
2022-08-23T06:48:13.903Z,20.27
2022-08-23T06:50:49.350Z,20.14
2022-08-23T06:53:21.947Z,20.54
2022-08-23T06:55:55.129Z,20.13
2022-08-23T06:58:28.186Z,20.35
2022-08-23T07:01:00.224Z,20.29
2022-08-23T07:03:36.518Z,20.46
2022-08-23T07:06:09.629Z,20.60
2022-08-23T07:08:42.365Z,20.89
2022-08-23T07:11:14.805Z,20.83
2022-08-23T07:13:47.147Z,20.52
2022-08-23T07:16:20.427Z,20.78
2022-08-23T07:18:55.965Z,20.96
2022-08-23T07:21:27.864Z,20.96
2022-08-23T07:24:00.766Z,20.89
2022-08-23T07:26:32.924Z,21.06
2022-08-23T07:29:07.346Z,20.71
2022-08-23T07:31:43.698Z,21.31
2022-08-23T07:34:19.748Z,21.65
2022-08-23T07:36:52.846Z,21.65
2022-08-23T07:39:26.718Z,21.68
2022-08-23T07:41:58.688Z,21.56
2022-08-23T07:44:34.765Z,21.68
2022-08-23T07:47:06.885Z,21.88
2022-08-23T07:49:41.925Z,22.07
2022-08-23T07:52:13.828Z,21.88
2022-08-23T07:54:49.355Z,21.48
2022-08-23T07:57:21.946Z,22.13
2022-08-23T08:00:38.223Z,22.33
2022-08-23T08:03:11.345Z,22.75
2022-08-23T08:05:46.930Z,22.81
2022-08-23T08:08:26.590Z,22.64
2022-08-23T08:10:59.369Z,22.40
2022-08-23T08:13:31.750Z,22.55
2022-08-23T08:16:04.922Z,22.45
2022-08-23T08:18:38.132Z,22.27
2022-08-23T08:21:17.743Z,22.77
2022-08-23T08:23:50.266Z,23.06
2022-08-23T08:26:24.956Z,23.17
2022-08-23T08:28:58.201Z,23.40
2022-08-23T08:31:31.154Z,22.56
2022-08-23T08:34:03.910Z,23.29
2022-08-23T08:36:42.242Z,22.97
2022-08-23T08:39:17.676Z,23.15
2022-08-23T08:42:07.435Z,23.56
2022-08-23T08:44:46.549Z,23.31
2022-08-23T08:47:25.652Z,23.87
2022-08-23T08:50:02.987Z,23.77
2022-08-23T08:52:42.422Z,23.98
2022-08-23T08:55:21.455Z,23.82
2022-08-23T08:57:55.365Z,23.95
2022-08-23T09:00:31.307Z,23.94
2022-08-23T09:03:07.904Z,24.09
2022-08-23T11:19:53.955Z,26.17
2022-08-23T11:25:49.193Z,25.89
2022-08-23T11:28:45.066Z,26.48
2022-08-23T11:31:35.248Z,26.74
2022-08-23T11:34:13.112Z,26.95
2022-08-23T11:36:46.033Z,27.09
2022-08-23T11:39:25.317Z,26.92
2022-08-23T11:42:09.454Z,26.62
2022-08-23T11:44:50.799Z,26.51
2022-08-23T11:47:44.550Z,26.40
2022-08-23T11:50:50.961Z,26.26
2022-08-23T11:54:04.985Z,26.63
2022-08-23T11:57:02.198Z,26.94
2022-08-23T12:00:43.329Z,26.95
2022-08-23T12:03:27.896Z,26.72
2022-08-23T12:06:39.108Z,26.66
2022-08-23T12:09:32.881Z,26.10
2022-08-23T12:12:26.647Z,25.66
2022-08-23T12:15:01.320Z,26.37
2022-08-23T12:18:06.354Z,26.17
2022-08-23T12:20:52.781Z,25.91
2022-08-23T12:23:24.959Z,25.94
2022-08-23T12:26:08.480Z,26.20
2022-08-23T12:28:48.066Z,25.85
2022-08-23T12:31:29.184Z,26.50
2022-08-23T12:34:22.140Z,26.58
2022-08-23T12:37:09.552Z,25.98
2022-08-23T12:39:50.381Z,26.22
2022-08-23T12:42:28.519Z,26.13
2022-08-23T12:45:09.341Z,26.04
2022-08-23T12:47:44.044Z,25.99
2022-08-23T12:50:33.053Z,26.15
2022-08-23T12:53:18.639Z,26.20
2022-08-23T12:55:54.404Z,26.28
2022-08-23T12:58:33.887Z,26.15
2022-08-23T13:01:09.021Z,25.94
2022-08-23T13:03:46.779Z,26.04
2022-08-23T13:06:25.002Z,25.56
2022-08-23T13:09:06.959Z,25.76
2022-08-23T13:11:41.659Z,26.07
2022-08-23T13:14:31.374Z,25.95
2022-08-23T13:17:19.160Z,25.92
2022-08-23T13:19:54.218Z,26.11
2022-08-23T13:22:29.260Z,26.51
2022-08-23T13:25:28.070Z,26.53
2022-08-23T13:28:03.478Z,26.35
2022-08-23T13:30:38.391Z,26.51
2022-08-23T13:33:26.241Z,25.93
2022-08-23T13:36:13.485Z,26.10
2022-08-23T13:38:47.565Z,25.89
2022-08-23T13:41:38.988Z,25.97
2022-08-23T13:44:18.415Z,25.71
2022-08-23T13:46:51.980Z,25.46
2022-08-23T13:49:29.022Z,25.31
2022-08-23T13:52:41.591Z,25.71
2022-08-23T13:55:05.739Z,26.22
2022-08-23T13:57:42.360Z,26.15
2022-08-23T14:00:19.484Z,25.87
2022-08-23T14:02:52.660Z,25.86
2022-08-23T14:05:26.210Z,25.96
2022-08-23T14:07:58.718Z,26.18
2022-08-23T14:10:31.052Z,25.54
2022-08-23T14:13:06.580Z,25.74
2022-08-23T14:15:56.073Z,25.81
2022-08-23T14:18:29.320Z,25.85
2022-08-23T14:21:01.480Z,26.14
2022-08-23T14:23:33.938Z,26.24
2022-08-23T14:26:06.368Z,26.20
2022-08-23T14:28:44.500Z,26.09
2022-08-23T14:31:18.023Z,26.47
2022-08-23T14:33:51.099Z,26.49
2022-08-23T14:36:23.617Z,26.43
2022-08-23T14:38:59.182Z,26.57
2022-08-23T14:41:33.360Z,26.10
2022-08-23T14:44:14.160Z,25.77
2022-08-23T14:46:46.919Z,25.79
2022-08-23T14:49:21.120Z,25.63
2022-08-23T14:51:54.519Z,25.52
2022-08-23T14:54:29.687Z,25.75
2022-08-23T14:57:01.900Z,26.00
2022-08-23T14:59:37.481Z,25.96
2022-08-23T15:02:11.968Z,25.56
2022-08-23T15:04:45.118Z,25.66
2022-08-23T15:07:18.875Z,25.82
2022-08-23T15:09:57.922Z,25.90
2022-08-23T15:15:25.730Z,25.80
2022-08-23T15:18:01.270Z,25.63
2022-08-23T15:20:37.909Z,25.64
2022-08-23T15:23:12.120Z,25.74
2022-08-23T15:25:47.240Z,25.88
2022-08-23T15:28:21.647Z,25.55
2022-08-23T15:30:56.992Z,25.46
2022-08-23T15:33:30.784Z,25.57
2022-08-23T15:36:05.538Z,25.58
2022-08-23T15:38:39.859Z,25.55
2022-08-23T15:41:12.620Z,25.75
2022-08-23T15:43:44.969Z,25.85
2022-08-23T15:46:25.012Z,25.56
2022-08-23T15:49:02.478Z,25.53
2022-08-23T15:51:35.600Z,25.49
2022-08-23T15:54:10.273Z,25.39
2022-08-23T15:56:50.810Z,25.39
2022-08-23T15:59:24.961Z,25.25
2022-08-23T16:02:00.055Z,25.04
2022-08-23T16:04:32.658Z,24.85
2022-08-23T16:07:09.341Z,24.98
2022-08-23T16:09:41.259Z,24.85
2022-08-23T16:12:13.858Z,24.85
2022-08-23T16:14:45.880Z,24.81
2022-08-23T16:17:22.540Z,24.86
2022-08-23T16:19:56.921Z,24.70
2022-08-23T16:22:30.186Z,24.52
2022-08-23T16:25:01.940Z,24.59
2022-08-23T16:27:34.380Z,24.71
2022-08-23T16:30:07.742Z,24.94
2022-08-23T16:32:45.059Z,24.95
2022-08-23T16:35:16.800Z,24.90
2022-08-23T16:37:49.426Z,24.59
2022-08-23T16:40:21.629Z,24.67
2022-08-23T16:42:53.891Z,24.69
2022-08-23T16:45:26.426Z,24.75
2022-08-23T16:48:01.391Z,24.71
2022-08-23T16:50:33.204Z,24.81
2022-08-23T16:53:07.429Z,24.54
2022-08-23T16:55:41.573Z,24.36
2022-08-23T16:58:13.296Z,24.40
2022-08-23T17:00:44.826Z,24.47
2022-08-23T17:03:20.762Z,24.26
2022-08-23T17:05:52.467Z,24.33
2022-08-23T17:08:24.234Z,24.33
2022-08-23T17:10:59.928Z,24.20
2022-08-23T17:13:36.797Z,24.30
2022-08-23T17:16:11.183Z,24.24
2022-08-23T17:18:54.083Z,24.16
2022-08-23T17:21:28.180Z,24.22
2022-08-23T17:24:00.702Z,24.06
2022-08-23T17:26:33.780Z,24.06
2022-08-23T17:29:06.240Z,24.05
2022-08-23T17:31:38.153Z,23.99
2022-08-23T17:34:13.222Z,24.01
2022-08-23T17:36:49.582Z,23.98
2022-08-23T17:39:24.890Z,23.98
2022-08-23T17:41:58.081Z,23.90
2022-08-23T17:44:30.421Z,23.89
2022-08-23T17:47:07.091Z,23.83
2022-08-23T17:49:42.824Z,23.85
2022-08-23T17:52:15.913Z,23.91
2022-08-23T17:54:48.423Z,23.73
2022-08-23T17:57:20.304Z,23.88
2022-08-23T17:59:53.298Z,23.76
2022-08-23T18:02:25.147Z,23.83
2022-08-23T18:05:02.574Z,23.84
2022-08-23T18:07:34.577Z,23.73
2022-08-23T18:10:08.342Z,23.56
2022-08-23T18:12:41.068Z,23.47
2022-08-23T18:15:18.946Z,23.41
2022-08-23T18:17:50.296Z,23.40
2022-08-23T18:20:27.050Z,23.47
2022-08-23T18:23:00.329Z,23.39
2022-08-23T18:25:32.491Z,23.23
2022-08-23T18:28:08.894Z,23.27
2022-08-23T18:30:48.123Z,23.20
2022-08-23T18:33:25.173Z,23.24
2022-08-23T18:36:00.507Z,23.14
2022-08-23T18:38:32.175Z,23.23
2022-08-23T18:41:04.220Z,23.10
2022-08-23T18:43:37.605Z,23.03
2022-08-23T18:46:10.172Z,23.04
2022-08-23T18:48:42.145Z,22.95
2022-08-23T18:51:23.328Z,23.00
2022-08-23T18:53:55.159Z,22.91
2022-08-23T18:56:27.114Z,22.85
2022-08-23T18:58:58.978Z,22.76
2022-08-23T19:01:34.326Z,22.77
2022-08-23T19:04:09.550Z,22.68
2022-08-23T19:06:45.662Z,22.74
2022-08-23T19:09:17.523Z,22.75
2022-08-23T19:11:49.681Z,22.79
2022-08-23T19:14:21.484Z,22.82
2022-08-23T19:16:53.893Z,22.71
2022-08-23T19:19:26.003Z,22.65
2022-08-23T19:22:01.130Z,22.58
2022-08-23T19:24:33.085Z,22.47
2022-08-23T19:27:05.166Z,22.53
2022-08-23T19:29:36.813Z,22.52
2022-08-23T19:34:42.591Z,22.34
2022-08-23T19:37:22.738Z,22.42
2022-08-23T19:39:55.234Z,22.37
2022-08-23T19:42:27.842Z,22.31
2022-08-23T19:44:59.695Z,22.23
2022-08-23T19:47:31.629Z,22.17
2022-08-23T19:50:04.372Z,21.99
2022-08-23T19:52:40.166Z,22.02
2022-08-23T19:55:13.872Z,21.93
2022-08-23T19:57:47.919Z,21.94
2022-08-23T20:00:20.020Z,21.83
2022-08-23T20:02:52.024Z,21.58
2022-08-23T20:05:24.354Z,21.81
2022-08-23T20:07:59.221Z,21.81
2022-08-23T20:10:30.766Z,21.81
2022-08-23T20:13:02.492Z,21.72
2022-08-23T20:15:34.301Z,21.76
2022-08-23T20:18:05.555Z,21.64
2022-08-23T20:20:36.738Z,21.67
2022-08-23T20:23:24.011Z,21.72
2022-08-23T20:25:55.333Z,21.61
2022-08-23T20:28:30.697Z,21.42
2022-08-23T20:31:09.696Z,21.45
2022-08-23T20:33:46.396Z,21.48
2022-08-23T20:36:20.942Z,21.42
2022-08-23T20:38:55.278Z,21.44
2022-08-23T20:41:27.645Z,21.28
2022-08-23T20:44:01.543Z,21.31
2022-08-23T20:46:33.491Z,21.28
2022-08-23T20:49:05.507Z,21.03
2022-08-23T20:51:37.440Z,21.12
2022-08-23T20:54:12.421Z,21.01
2022-08-23T20:56:44.125Z,20.98
2022-08-23T20:59:16.772Z,20.88
2022-08-23T21:01:48.280Z,20.99
2022-08-23T21:04:20.283Z,21.00
2022-08-23T21:06:55.291Z,20.97
2022-08-23T21:09:32.269Z,20.91
2022-08-23T21:12:03.925Z,20.97
2022-08-23T21:14:35.480Z,20.71
2022-08-23T21:17:07.946Z,20.66
2022-08-23T21:19:39.517Z,20.62
2022-08-23T21:22:10.794Z,20.68
2022-08-23T21:24:44.962Z,20.75
2022-08-23T21:27:16.209Z,21.03
2022-08-23T21:29:48.013Z,21.18
2022-08-23T21:32:19.308Z,20.94
2022-08-23T21:34:51.171Z,20.94
2022-08-23T21:37:22.663Z,20.90
2022-08-23T21:39:57.401Z,21.03
2022-08-23T21:42:30.406Z,20.80
2022-08-23T21:45:02.058Z,20.72
2022-08-23T21:47:35.268Z,20.85
2022-08-23T21:50:07.527Z,20.87
2022-08-23T21:52:39.103Z,20.75
2022-08-23T21:55:13.856Z,20.60
2022-08-23T21:57:46.876Z,20.69
2022-08-23T22:00:19.592Z,20.77
2022-08-23T22:02:50.976Z,20.69
2022-08-23T22:05:22.681Z,20.58
2022-08-23T22:07:54.106Z,20.55
2022-08-23T22:10:28.246Z,20.65
2022-08-23T22:13:01.012Z,20.53
2022-08-23T22:15:33.099Z,20.56
2022-08-23T22:18:06.122Z,20.53
2022-08-23T22:20:38.617Z,20.29
2022-08-23T22:23:10.638Z,20.40
2022-08-23T22:25:45.079Z,20.29
2022-08-23T22:28:17.166Z,20.24
2022-08-23T22:30:49.221Z,20.24
2022-08-23T22:33:20.347Z,20.25
2022-08-23T22:35:52.369Z,20.10
2022-08-23T22:38:27.651Z,20.15
2022-08-23T22:41:02.907Z,19.99
2022-08-23T22:43:36.864Z,20.14
2022-08-23T22:46:09.241Z,20.23
2022-08-23T22:48:41.502Z,20.20
2022-08-23T22:51:18.154Z,20.21
2022-08-23T22:53:52.494Z,20.14
2022-08-23T22:56:30.302Z,19.85
2022-08-23T22:59:03.214Z,19.91
2022-08-23T23:01:38.427Z,19.83
2022-08-23T23:04:13.235Z,19.81
2022-08-23T23:06:46.382Z,19.36
2022-08-23T23:09:18.286Z,19.70
2022-08-23T23:11:53.024Z,19.87
2022-08-23T23:14:26.166Z,19.71
2022-08-23T23:16:59.235Z,19.72
2022-08-23T23:19:43.227Z,19.47
2022-08-23T23:22:18.021Z,19.50
2022-08-23T23:24:49.482Z,19.31
2022-08-23T23:27:24.014Z,19.14
2022-08-23T23:29:55.510Z,19.35
2022-08-23T23:32:27.493Z,19.38
2022-08-23T23:35:00.804Z,19.25
2022-08-23T23:37:33.181Z,19.22
2022-08-23T23:40:05.532Z,19.33
2022-08-23T23:42:40.217Z,19.44
2022-08-23T23:45:12.908Z,19.39
2022-08-23T23:47:44.512Z,19.26
2022-08-23T23:50:19.683Z,19.22
2022-08-23T23:52:52.277Z,19.25
2022-08-23T23:55:25.465Z,19.28
2022-08-23T23:58:02.452Z,19.12
